sensor_id;sensor_type;location;lat;lon;timestamp;pressure;altitude;pressure_sealevel;temperature;humidity
54854;BME280;40747;49.480;8.658;2022-11-15T00:01:30;100038.94;;;12.64;84.73
54854;BME280;40747;49.480;8.658;2022-11-15T00:03:55;100033.19;;;12.54;84.91
54854;BME280;40747;49.480;8.658;2022-11-15T00:06:20;100022.34;;;12.60;84.12
54854;BME280;40747;49.480;8.658;2022-11-15T00:08:45;100029.63;;;12.55;84.58
54854;BME280;40747;49.480;8.658;2022-11-15T00:11:12;100023.56;;;12.53;85.04
54854;BME280;40747;49.480;8.658;2022-11-15T00:13:37;100019.94;;;12.56;84.14
54854;BME280;40747;49.480;8.658;2022-11-15T00:16:03;100010.72;;;12.65;84.17
54854;BME280;40747;49.480;8.658;2022-11-15T00:18:30;100007.03;;;12.69;84.16
54854;BME280;40747;49.480;8.658;2022-11-15T00:20:56;100007.53;;;12.77;84.24
54854;BME280;40747;49.480;8.658;2022-11-15T00:23:27;100010.38;;;12.72;84.64
54854;BME280;40747;49.480;8.658;2022-11-15T00:25:56;100011.09;;;12.76;84.38
54854;BME280;40747;49.480;8.658;2022-11-15T00:28:22;100005.75;;;12.77;85.35
54854;BME280;40747;49.480;8.658;2022-11-15T00:30:48;100007.53;;;12.77;85.35
54854;BME280;40747;49.480;8.658;2022-11-15T00:33:13;100013.09;;;12.71;86.07
54854;BME280;40747;49.480;8.658;2022-11-15T00:35:38;100011.28;;;12.52;87.62
54854;BME280;40747;49.480;8.658;2022-11-15T00:38:03;100003.13;;;12.36;88.95
54854;BME280;40747;49.480;8.658;2022-11-15T00:40:29;100005.06;;;12.53;88.54
54854;BME280;40747;49.480;8.658;2022-11-15T00:42:55;99999.44;;;12.40;88.89
54854;BME280;40747;49.480;8.658;2022-11-15T00:45:20;99996.44;;;12.29;88.93
54854;BME280;40747;49.480;8.658;2022-11-15T00:47:46;99985.25;;;12.22;89.50
54854;BME280;40747;49.480;8.658;2022-11-15T00:50:12;100000.06;;;12.26;89.72
54854;BME280;40747;49.480;8.658;2022-11-15T00:52:37;99985.31;;;12.21;89.00
54854;BME280;40747;49.480;8.658;2022-11-15T00:55:02;99994.31;;;12.17;89.29
54854;BME280;40747;49.480;8.658;2022-11-15T00:57:28;99995.78;;;12.02;89.02
54854;BME280;40747;49.480;8.658;2022-11-15T00:59:53;99984.13;;;12.07;89.04
54854;BME280;40747;49.480;8.658;2022-11-15T01:02:18;99987.78;;;12.05;89.45
54854;BME280;40747;49.480;8.658;2022-11-15T01:04:43;99989.75;;;12.00;89.17
54854;BME280;40747;49.480;8.658;2022-11-15T01:07:09;99988.69;;;12.04;90.16
54854;BME280;40747;49.480;8.658;2022-11-15T01:09:34;99985.13;;;12.05;89.27
54854;BME280;40747;49.480;8.658;2022-11-15T01:11:59;99983.41;;;12.04;89.22
54854;BME280;40747;49.480;8.658;2022-11-15T01:14:25;99992.41;;;11.98;89.82
54854;BME280;40747;49.480;8.658;2022-11-15T01:16:50;99987.75;;;11.83;89.51
54854;BME280;40747;49.480;8.658;2022-11-15T01:19:15;99984.59;;;11.74;90.42
54854;BME280;40747;49.480;8.658;2022-11-15T01:21:41;99976.84;;;11.70;90.71
54854;BME280;40747;49.480;8.658;2022-11-15T01:24:07;99972.69;;;11.64;90.81
54854;BME280;40747;49.480;8.658;2022-11-15T01:26:36;99981.13;;;11.72;91.30
54854;BME280;40747;49.480;8.658;2022-11-15T01:29:01;99992.13;;;11.61;90.89
54854;BME280;40747;49.480;8.658;2022-11-15T01:31:27;99992.22;;;11.60;90.84
54854;BME280;40747;49.480;8.658;2022-11-15T01:33:52;99970.97;;;11.63;90.22
54854;BME280;40747;49.480;8.658;2022-11-15T01:36:20;99973.84;;;11.57;90.25
54854;BME280;40747;49.480;8.658;2022-11-15T01:38:56;99975.38;;;11.40;91.03
54854;BME280;40747;49.480;8.658;2022-11-15T01:41:32;99962.25;;;11.39;90.99
54854;BME280;40747;49.480;8.658;2022-11-15T01:47:03;99977.47;;;11.54;90.59
54854;BME280;40747;49.480;8.658;2022-11-15T01:49:33;99969.19;;;11.41;90.91
54854;BME280;40747;49.480;8.658;2022-11-15T01:52:02;99972.63;;;11.43;90.29
54854;BME280;40747;49.480;8.658;2022-11-15T01:54:29;99964.28;;;11.54;90.74
54854;BME280;40747;49.480;8.658;2022-11-15T01:56:59;99970.72;;;11.47;90.38
54854;BME280;40747;49.480;8.658;2022-11-15T01:59:26;99963.44;;;11.54;90.37
54854;BME280;40747;49.480;8.658;2022-11-15T02:01:52;99964.97;;;11.37;90.72
54854;BME280;40747;49.480;8.658;2022-11-15T02:04:25;99951.34;;;11.48;91.06
54854;BME280;40747;49.480;8.658;2022-11-15T02:06:51;99954.03;;;11.46;89.97
54854;BME280;40747;49.480;8.658;2022-11-15T02:09:17;99937.63;;;11.40;89.73
54854;BME280;40747;49.480;8.658;2022-11-15T02:11:43;99933.78;;;11.47;90.15
54854;BME280;40747;49.480;8.658;2022-11-15T02:14:10;99938.22;;;11.46;89.86
54854;BME280;40747;49.480;8.658;2022-11-15T02:22:04;99940.69;;;11.51;90.27
54854;BME280;40747;49.480;8.658;2022-11-15T02:27:29;99931.66;;;11.35;90.75
54854;BME280;40747;49.480;8.658;2022-11-15T02:32:51;99924.28;;;11.43;91.11
54854;BME280;40747;49.480;8.658;2022-11-15T02:38:05;99919.47;;;11.32;92.18
54854;BME280;40747;49.480;8.658;2022-11-15T02:40:44;99918.06;;;11.23;92.13
54854;BME280;40747;49.480;8.658;2022-11-15T02:43:17;99912.78;;;11.23;91.94
54854;BME280;40747;49.480;8.658;2022-11-15T02:46:09;99901.44;;;11.21;92.25
54854;BME280;40747;49.480;8.658;2022-11-15T02:48:38;99898.56;;;11.05;92.82
54854;BME280;40747;49.480;8.658;2022-11-15T02:51:04;99896.09;;;11.01;93.00
54854;BME280;40747;49.480;8.658;2022-11-15T02:53:29;99893.69;;;10.94;93.77
54854;BME280;40747;49.480;8.658;2022-11-15T02:55:56;99902.25;;;10.77;94.46
54854;BME280;40747;49.480;8.658;2022-11-15T03:01:03;99888.28;;;10.75;93.96
54854;BME280;40747;49.480;8.658;2022-11-15T03:03:37;99884.09;;;10.93;93.88
54854;BME280;40747;49.480;8.658;2022-11-15T03:09:07;99887.66;;;10.69;95.31
54854;BME280;40747;49.480;8.658;2022-11-15T03:11:38;99862.66;;;10.57;94.97
54854;BME280;40747;49.480;8.658;2022-11-15T03:14:34;99873.81;;;10.63;95.52
54854;BME280;40747;49.480;8.658;2022-11-15T03:17:12;99875.53;;;10.64;95.69
54854;BME280;40747;49.480;8.658;2022-11-15T03:19:49;99872.47;;;10.75;94.61
54854;BME280;40747;49.480;8.658;2022-11-15T03:22:18;99877.50;;;10.81;94.50
54854;BME280;40747;49.480;8.658;2022-11-15T03:24:47;99880.44;;;10.74;94.82
54854;BME280;40747;49.480;8.658;2022-11-15T03:27:17;99879.38;;;10.78;94.72
54854;BME280;40747;49.480;8.658;2022-11-15T03:29:51;99877.28;;;10.88;95.02
54854;BME280;40747;49.480;8.658;2022-11-15T03:32:21;99873.97;;;11.05;93.93
54854;BME280;40747;49.480;8.658;2022-11-15T03:34:50;99872.44;;;10.99;94.06
54854;BME280;40747;49.480;8.658;2022-11-15T03:37:21;99878.84;;;10.92;94.49
54854;BME280;40747;49.480;8.658;2022-11-15T03:39:47;99885.47;;;11.02;94.25
54854;BME280;40747;49.480;8.658;2022-11-15T03:42:33;99871.03;;;10.90;94.40
54854;BME280;40747;49.480;8.658;2022-11-15T03:45:13;99878.31;;;11.06;94.12
54854;BME280;40747;49.480;8.658;2022-11-15T03:47:42;99873.63;;;11.14;93.39
54854;BME280;40747;49.480;8.658;2022-11-15T03:50:12;99872.31;;;11.24;93.33
54854;BME280;40747;49.480;8.658;2022-11-15T03:52:39;99872.75;;;11.13;93.52
54854;BME280;40747;49.480;8.658;2022-11-15T03:55:07;99869.63;;;11.26;92.99
54854;BME280;40747;49.480;8.658;2022-11-15T03:57:34;99868.03;;;11.22;92.84
54854;BME280;40747;49.480;8.658;2022-11-15T03:59:59;99867.16;;;11.21;92.94
54854;BME280;40747;49.480;8.658;2022-11-15T04:02:24;99880.59;;;11.37;94.00
54854;BME280;40747;49.480;8.658;2022-11-15T04:04:50;99878.50;;;11.23;92.99
54854;BME280;40747;49.480;8.658;2022-11-15T04:07:15;99877.34;;;11.30;92.79
54854;BME280;40747;49.480;8.658;2022-11-15T04:09:40;99864.28;;;11.27;93.05
54854;BME280;40747;49.480;8.658;2022-11-15T04:12:24;99866.66;;;11.34;92.87
54854;BME280;40747;49.480;8.658;2022-11-15T04:15:07;99853.88;;;11.24;92.69
54854;BME280;40747;49.480;8.658;2022-11-15T04:17:35;99878.78;;;11.38;92.53
54854;BME280;40747;49.480;8.658;2022-11-15T04:20:01;99881.50;;;11.36;92.73
54854;BME280;40747;49.480;8.658;2022-11-15T04:22:45;99877.38;;;11.29;92.75
54854;BME280;40747;49.480;8.658;2022-11-15T04:25:29;99878.34;;;11.28;93.41
54854;BME280;40747;49.480;8.658;2022-11-15T04:27:54;99876.88;;;11.41;92.80
54854;BME280;40747;49.480;8.658;2022-11-15T04:30:20;99872.94;;;11.52;92.61
54854;BME280;40747;49.480;8.658;2022-11-15T04:32:45;99872.47;;;11.42;92.80
54854;BME280;40747;49.480;8.658;2022-11-15T04:35:11;99862.50;;;11.28;93.38
54854;BME280;40747;49.480;8.658;2022-11-15T04:37:36;99860.72;;;11.28;92.90
54854;BME280;40747;49.480;8.658;2022-11-15T04:40:02;99861.53;;;11.30;92.93
54854;BME280;40747;49.480;8.658;2022-11-15T04:42:27;99851.91;;;11.29;93.43
54854;BME280;40747;49.480;8.658;2022-11-15T04:44:52;99852.44;;;11.38;92.69
54854;BME280;40747;49.480;8.658;2022-11-15T04:47:18;99857.91;;;11.33;92.65
54854;BME280;40747;49.480;8.658;2022-11-15T04:49:43;99864.63;;;11.40;92.46
54854;BME280;40747;49.480;8.658;2022-11-15T04:52:09;99857.59;;;11.41;93.11
54854;BME280;40747;49.480;8.658;2022-11-15T04:54:34;99853.91;;;11.45;92.37
54854;BME280;40747;49.480;8.658;2022-11-15T04:56:59;99852.72;;;11.52;92.49
54854;BME280;40747;49.480;8.658;2022-11-15T04:59:25;99853.19;;;11.62;93.42
54854;BME280;40747;49.480;8.658;2022-11-15T05:01:50;99848.47;;;11.48;93.03
54854;BME280;40747;49.480;8.658;2022-11-15T05:04:16;99840.56;;;11.48;92.60
54854;BME280;40747;49.480;8.658;2022-11-15T05:06:44;99835.44;;;11.45;93.39
54854;BME280;40747;49.480;8.658;2022-11-15T05:09:09;99828.44;;;11.64;92.52
54854;BME280;40747;49.480;8.658;2022-11-15T05:11:34;99833.19;;;11.77;93.24
54854;BME280;40747;49.480;8.658;2022-11-15T05:14:00;99826.59;;;11.67;92.18
54854;BME280;40747;49.480;8.658;2022-11-15T05:16:25;99819.19;;;10.91;95.90
54854;BME280;40747;49.480;8.658;2022-11-15T05:18:54;99821.75;;;10.70;96.73
54854;BME280;40747;49.480;8.658;2022-11-15T05:21:19;99840.00;;;10.53;99.33
54854;BME280;40747;49.480;8.658;2022-11-15T05:23:45;99835.84;;;10.69;100.00
54854;BME280;40747;49.480;8.658;2022-11-15T05:26:11;99827.91;;;10.23;100.00
54854;BME280;40747;49.480;8.658;2022-11-15T05:28:37;99820.75;;;10.27;100.00
54854;BME280;40747;49.480;8.658;2022-11-15T05:31:11;99827.16;;;10.20;100.00
54854;BME280;40747;49.480;8.658;2022-11-15T05:33:40;99826.53;;;10.13;100.00
54854;BME280;40747;49.480;8.658;2022-11-15T05:38:46;99821.25;;;10.13;100.00
54854;BME280;40747;49.480;8.658;2022-11-15T05:41:14;99823.19;;;10.08;100.00
54854;BME280;40747;49.480;8.658;2022-11-15T05:43:41;99793.78;;;9.96;100.00
54854;BME280;40747;49.480;8.658;2022-11-15T05:46:07;99818.63;;;10.13;100.00
54854;BME280;40747;49.480;8.658;2022-11-15T05:48:34;99821.47;;;10.07;100.00
54854;BME280;40747;49.480;8.658;2022-11-15T05:51:02;99822.88;;;9.92;100.00
54854;BME280;40747;49.480;8.658;2022-11-15T05:53:29;99834.59;;;9.83;100.00
54854;BME280;40747;49.480;8.658;2022-11-15T05:55:55;99823.81;;;9.65;100.00
54854;BME280;40747;49.480;8.658;2022-11-15T05:58:20;99834.34;;;9.65;100.00
54854;BME280;40747;49.480;8.658;2022-11-15T06:00:46;99832.72;;;9.61;100.00
54854;BME280;40747;49.480;8.658;2022-11-15T06:03:11;99830.06;;;9.61;100.00
54854;BME280;40747;49.480;8.658;2022-11-15T06:05:39;99831.16;;;9.56;100.00
54854;BME280;40747;49.480;8.658;2022-11-15T06:08:04;99831.81;;;9.62;100.00
54854;BME280;40747;49.480;8.658;2022-11-15T06:10:30;99835.28;;;9.88;100.00
54854;BME280;40747;49.480;8.658;2022-11-15T06:13:03;99828.88;;;10.21;100.00
54854;BME280;40747;49.480;8.658;2022-11-15T06:15:29;99839.31;;;10.47;100.00
54854;BME280;40747;49.480;8.658;2022-11-15T06:17:57;99830.06;;;10.59;100.00
54854;BME280;40747;49.480;8.658;2022-11-15T06:20:24;99830.31;;;10.75;100.00
54854;BME280;40747;49.480;8.658;2022-11-15T06:22:49;99828.75;;;10.93;100.00
54854;BME280;40747;49.480;8.658;2022-11-15T06:25:14;99835.09;;;11.10;100.00
54854;BME280;40747;49.480;8.658;2022-11-15T06:27:40;99833.75;;;11.22;100.00
54854;BME280;40747;49.480;8.658;2022-11-15T06:30:05;99836.66;;;11.36;99.43
54854;BME280;40747;49.480;8.658;2022-11-15T06:32:31;99840.81;;;11.42;98.99
54854;BME280;40747;49.480;8.658;2022-11-15T06:34:56;99836.91;;;11.52;98.44
54854;BME280;40747;49.480;8.658;2022-11-15T06:37:21;99827.06;;;11.56;98.75
54854;BME280;40747;49.480;8.658;2022-11-15T06:39:47;99839.78;;;11.67;98.30
54854;BME280;40747;49.480;8.658;2022-11-15T06:42:12;99850.34;;;11.67;98.46
54854;BME280;40747;49.480;8.658;2022-11-15T06:44:37;99839.78;;;11.67;99.09
54854;BME280;40747;49.480;8.658;2022-11-15T06:47:03;99842.44;;;11.67;97.84
54854;BME280;40747;49.480;8.658;2022-11-15T06:49:28;99836.25;;;11.68;97.48
54854;BME280;40747;49.480;8.658;2022-11-15T06:51:53;99840.53;;;11.70;97.46
54854;BME280;40747;49.480;8.658;2022-11-15T06:54:18;99841.38;;;11.50;98.68
54854;BME280;40747;49.480;8.658;2022-11-15T06:56:45;99839.56;;;11.51;99.02
54854;BME280;40747;49.480;8.658;2022-11-15T06:59:11;99832.13;;;11.60;98.79
54854;BME280;40747;49.480;8.658;2022-11-15T07:01:36;99826.69;;;11.65;98.59
54854;BME280;40747;49.480;8.658;2022-11-15T07:04:01;99827.34;;;11.70;98.17
54854;BME280;40747;49.480;8.658;2022-11-15T07:06:26;99824.47;;;11.75;98.26
54854;BME280;40747;49.480;8.658;2022-11-15T07:08:52;99815.66;;;11.76;97.53
54854;BME280;40747;49.480;8.658;2022-11-15T07:11:17;99825.13;;;11.80;98.59
54854;BME280;40747;49.480;8.658;2022-11-15T07:13:42;99827.03;;;11.76;99.28
54854;BME280;40747;49.480;8.658;2022-11-15T07:16:09;99828.84;;;11.76;98.93
54854;BME280;40747;49.480;8.658;2022-11-15T07:18:36;99824.75;;;11.69;100.00
54854;BME280;40747;49.480;8.658;2022-11-15T07:21:08;99834.53;;;11.67;99.51
54854;BME280;40747;49.480;8.658;2022-11-15T07:23:39;99840.31;;;11.75;100.00
54854;BME280;40747;49.480;8.658;2022-11-15T07:26:05;99839.31;;;11.77;99.16
54854;BME280;40747;49.480;8.658;2022-11-15T07:28:31;99838.28;;;11.82;99.82
54854;BME280;40747;49.480;8.658;2022-11-15T07:30:56;99838.78;;;11.90;99.02
54854;BME280;40747;49.480;8.658;2022-11-15T07:33:22;99842.78;;;12.00;96.74
54854;BME280;40747;49.480;8.658;2022-11-15T07:35:47;99841.19;;;11.96;95.72
54854;BME280;40747;49.480;8.658;2022-11-15T07:38:16;99843.56;;;12.02;97.21
54854;BME280;40747;49.480;8.658;2022-11-15T07:40:44;99836.69;;;11.98;96.54
54854;BME280;40747;49.480;8.658;2022-11-15T07:43:10;99841.69;;;12.04;95.69
54854;BME280;40747;49.480;8.658;2022-11-15T07:45:40;99844.59;;;12.19;95.49
54854;BME280;40747;49.480;8.658;2022-11-15T07:48:06;99837.69;;;12.16;93.48
54854;BME280;40747;49.480;8.658;2022-11-15T07:50:31;99836.09;;;12.12;92.06
54854;BME280;40747;49.480;8.658;2022-11-15T07:52:58;99845.53;;;12.18;91.71
54854;BME280;40747;49.480;8.658;2022-11-15T07:55:25;99836.84;;;12.35;91.01
54854;BME280;40747;49.480;8.658;2022-11-15T07:57:52;99837.84;;;12.51;90.21
54854;BME280;40747;49.480;8.658;2022-11-15T08:00:17;99835.84;;;12.56;88.77
54854;BME280;40747;49.480;8.658;2022-11-15T08:02:43;99846.88;;;12.65;88.72
54854;BME280;40747;49.480;8.658;2022-11-15T08:05:08;99850.97;;;12.72;88.48
54854;BME280;40747;49.480;8.658;2022-11-15T08:07:33;99841.75;;;12.81;88.82
54854;BME280;40747;49.480;8.658;2022-11-15T08:09:59;99832.66;;;12.86;89.18
54854;BME280;40747;49.480;8.658;2022-11-15T08:12:27;99828.97;;;12.90;88.79
54854;BME280;40747;49.480;8.658;2022-11-15T08:14:53;99827.31;;;12.88;88.49
54854;BME280;40747;49.480;8.658;2022-11-15T08:17:19;99830.59;;;12.93;88.36
54854;BME280;40747;49.480;8.658;2022-11-15T08:19:44;99826.41;;;13.06;89.72
54854;BME280;40747;49.480;8.658;2022-11-15T08:22:09;99837.06;;;13.05;88.77
54854;BME280;40747;49.480;8.658;2022-11-15T08:24:35;99821.91;;;13.08;89.35
54854;BME280;40747;49.480;8.658;2022-11-15T08:27:00;99821.22;;;13.05;89.28
54854;BME280;40747;49.480;8.658;2022-11-15T08:29:25;99826.00;;;12.97;89.56
54854;BME280;40747;49.480;8.658;2022-11-15T08:31:51;99819.50;;;13.04;90.26
54854;BME280;40747;49.480;8.658;2022-11-15T08:34:19;99819.66;;;13.18;90.20
54854;BME280;40747;49.480;8.658;2022-11-15T08:36:44;99813.22;;;13.24;89.87
54854;BME280;40747;49.480;8.658;2022-11-15T08:39:11;99810.56;;;13.24;91.50
54854;BME280;40747;49.480;8.658;2022-11-15T08:41:38;99804.66;;;13.19;90.29
54854;BME280;40747;49.480;8.658;2022-11-15T08:44:03;99806.53;;;13.34;91.68
54854;BME280;40747;49.480;8.658;2022-11-15T08:46:29;99810.03;;;13.35;90.10
54854;BME280;40747;49.480;8.658;2022-11-15T08:48:54;99809.09;;;13.36;91.78
54854;BME280;40747;49.480;8.658;2022-11-15T08:51:19;99807.28;;;13.38;91.23
54854;BME280;40747;49.480;8.658;2022-11-15T08:53:45;99794.66;;;13.43;90.51
54854;BME280;40747;49.480;8.658;2022-11-15T08:56:12;99797.94;;;13.48;90.45
54854;BME280;40747;49.480;8.658;2022-11-15T08:58:38;99800.72;;;13.45;89.53
54854;BME280;40747;49.480;8.658;2022-11-15T09:01:04;99787.25;;;13.50;92.01
54854;BME280;40747;49.480;8.658;2022-11-15T09:03:30;99800.81;;;13.61;91.46
54854;BME280;40747;49.480;8.658;2022-11-15T09:05:59;99797.13;;;13.64;90.34
54854;BME280;40747;49.480;8.658;2022-11-15T09:08:29;99810.81;;;13.72;90.34
54854;BME280;40747;49.480;8.658;2022-11-15T09:10:54;99804.75;;;13.70;91.54
54854;BME280;40747;49.480;8.658;2022-11-15T09:13:20;99806.31;;;13.74;91.47
54854;BME280;40747;49.480;8.658;2022-11-15T09:15:45;99802.97;;;13.70;90.24
54854;BME280;40747;49.480;8.658;2022-11-15T09:18:10;99803.97;;;13.68;91.18
54854;BME280;40747;49.480;8.658;2022-11-15T09:20:35;99798.38;;;13.74;89.76
54854;BME280;40747;49.480;8.658;2022-11-15T09:23:01;99809.88;;;13.73;90.30
54854;BME280;40747;49.480;8.658;2022-11-15T09:25:28;99805.84;;;13.66;90.21
54854;BME280;40747;49.480;8.658;2022-11-15T09:27:53;99812.09;;;13.65;89.91
54854;BME280;40747;49.480;8.658;2022-11-15T09:30:19;99796.66;;;13.73;90.43
54854;BME280;40747;49.480;8.658;2022-11-15T09:32:44;99802.78;;;13.91;88.76
54854;BME280;40747;49.480;8.658;2022-11-15T09:35:09;99812.72;;;14.03;89.21
54854;BME280;40747;49.480;8.658;2022-11-15T09:37:35;99806.50;;;14.04;88.42
54854;BME280;40747;49.480;8.658;2022-11-15T09:40:00;99811.38;;;14.12;88.60
54854;BME280;40747;49.480;8.658;2022-11-15T09:45:22;99809.44;;;14.32;87.53
54854;BME280;40747;49.480;8.658;2022-11-15T09:48:09;99805.53;;;14.39;87.69
54854;BME280;40747;49.480;8.658;2022-11-15T09:50:43;99795.75;;;14.23;87.38
54854;BME280;40747;49.480;8.658;2022-11-15T09:53:21;99791.66;;;14.34;86.93
54854;BME280;40747;49.480;8.658;2022-11-15T09:56:00;99796.09;;;14.33;87.31
54854;BME280;40747;49.480;8.658;2022-11-15T09:58:28;99793.63;;;14.46;87.73
54854;BME280;40747;49.480;8.658;2022-11-15T10:00:57;99801.06;;;14.23;86.91
54854;BME280;40747;49.480;8.658;2022-11-15T10:03:31;99788.47;;;14.27;86.42
54854;BME280;40747;49.480;8.658;2022-11-15T10:06:01;99791.31;;;14.24;86.83
54854;BME280;40747;49.480;8.658;2022-11-15T10:08:51;99791.13;;;14.27;87.74
54854;BME280;40747;49.480;8.658;2022-11-15T10:11:31;99784.47;;;14.36;86.81
54854;BME280;40747;49.480;8.658;2022-11-15T10:14:01;99782.59;;;14.38;87.57
54854;BME280;40747;49.480;8.658;2022-11-15T10:16:39;99783.44;;;14.38;86.96
54854;BME280;40747;49.480;8.658;2022-11-15T10:22:20;99779.31;;;14.17;88.43
54854;BME280;40747;49.480;8.658;2022-11-15T10:24:47;99768.25;;;14.26;87.00
54854;BME280;40747;49.480;8.658;2022-11-15T10:27:17;99774.63;;;14.22;86.80
54854;BME280;40747;49.480;8.658;2022-11-15T10:29:45;99760.56;;;14.37;86.59
54854;BME280;40747;49.480;8.658;2022-11-15T10:32:12;99761.41;;;14.54;85.20
54854;BME280;40747;49.480;8.658;2022-11-15T10:34:38;99754.50;;;14.67;85.49
54854;BME280;40747;49.480;8.658;2022-11-15T10:37:03;99757.50;;;14.77;84.38
54854;BME280;40747;49.480;8.658;2022-11-15T10:39:28;99758.16;;;13.67;87.54
54854;BME280;40747;49.480;8.658;2022-11-15T10:41:54;99755.78;;;13.26;90.65
54854;BME280;40747;49.480;8.658;2022-11-15T10:44:26;99756.59;;;12.93;93.65
54854;BME280;40747;49.480;8.658;2022-11-15T10:49:26;99738.22;;;12.90;93.63
54854;BME280;40747;49.480;8.658;2022-11-15T10:52:16;99745.81;;;12.78;92.99
54854;BME280;40747;49.480;8.658;2022-11-15T10:54:47;99742.97;;;13.01;92.88
54854;BME280;40747;49.480;8.658;2022-11-15T10:57:16;99738.97;;;12.74;92.31
54854;BME280;40747;49.480;8.658;2022-11-15T10:59:49;99729.97;;;12.78;92.96
54854;BME280;40747;49.480;8.658;2022-11-15T11:02:36;99727.19;;;13.34;89.68
54854;BME280;40747;49.480;8.658;2022-11-15T11:05:04;99722.16;;;13.63;87.71
54854;BME280;40747;49.480;8.658;2022-11-15T11:07:33;99719.53;;;13.97;88.18
54854;BME280;40747;49.480;8.658;2022-11-15T11:10:18;99700.41;;;14.23;86.48
54854;BME280;40747;49.480;8.658;2022-11-15T11:12:44;99702.59;;;14.47;87.08
54854;BME280;40747;49.480;8.658;2022-11-15T11:15:12;99707.91;;;14.47;85.13
54854;BME280;40747;49.480;8.658;2022-11-15T11:18:12;99701.31;;;14.54;83.36
54854;BME280;40747;49.480;8.658;2022-11-15T11:20:45;99699.25;;;14.59;83.45
54854;BME280;40747;49.480;8.658;2022-11-15T11:23:43;99686.66;;;14.79;83.35
54854;BME280;40747;49.480;8.658;2022-11-15T11:26:28;99685.09;;;14.91;84.63
54854;BME280;40747;49.480;8.658;2022-11-15T11:31:39;99675.84;;;14.98;82.36
54854;BME280;40747;49.480;8.658;2022-11-15T11:37:24;99674.06;;;15.13;82.68
54854;BME280;40747;49.480;8.658;2022-11-15T11:42:49;99657.22;;;15.29;79.57
54854;BME280;40747;49.480;8.658;2022-11-15T11:45:41;99654.56;;;15.43;80.28
54854;BME280;40747;49.480;8.658;2022-11-15T11:48:14;99647.09;;;15.35;80.99
54854;BME280;40747;49.480;8.658;2022-11-15T11:50:42;99641.50;;;15.54;79.32
54854;BME280;40747;49.480;8.658;2022-11-15T11:53:25;99639.22;;;15.63;79.17
54854;BME280;40747;49.480;8.658;2022-11-15T11:56:02;99630.50;;;15.61;79.08
54854;BME280;40747;49.480;8.658;2022-11-15T11:58:42;99631.91;;;15.66;79.62
54854;BME280;40747;49.480;8.658;2022-11-15T12:03:51;99619.41;;;15.54;81.28
54854;BME280;40747;49.480;8.658;2022-11-15T12:06:41;99607.19;;;15.22;81.50
54854;BME280;40747;49.480;8.658;2022-11-15T12:09:21;99609.31;;;14.10;84.19
54854;BME280;40747;49.480;8.658;2022-11-15T12:17:01;99598.59;;;13.81;87.97
54854;BME280;40747;49.480;8.658;2022-11-15T12:19:28;99597.44;;;14.17;86.00
54854;BME280;40747;49.480;8.658;2022-11-15T12:21:56;99589.47;;;14.33;86.47
54854;BME280;40747;49.480;8.658;2022-11-15T12:26:57;99580.22;;;14.40;85.21
54854;BME280;40747;49.480;8.658;2022-11-15T12:29:34;99576.78;;;14.38;86.08
54854;BME280;40747;49.480;8.658;2022-11-15T12:32:00;99583.06;;;14.37;85.61
54854;BME280;40747;49.480;8.658;2022-11-15T12:34:36;99583.13;;;14.36;87.39
54854;BME280;40747;49.480;8.658;2022-11-15T12:37:33;99577.69;;;14.23;86.89
54854;BME280;40747;49.480;8.658;2022-11-15T12:45:37;99559.22;;;13.75;90.36
54854;BME280;40747;49.480;8.658;2022-11-15T12:58:42;99543.69;;;13.37;93.61
54854;BME280;40747;49.480;8.658;2022-11-15T13:01:09;99548.59;;;13.27;91.09
54854;BME280;40747;49.480;8.658;2022-11-15T13:03:34;99547.97;;;13.22;91.18
54854;BME280;40747;49.480;8.658;2022-11-15T13:06:03;99554.19;;;13.54;91.09
54854;BME280;40747;49.480;8.658;2022-11-15T13:08:43;99547.41;;;13.33;91.77
54854;BME280;40747;49.480;8.658;2022-11-15T13:11:47;99545.75;;;13.14;92.98
54854;BME280;40747;49.480;8.658;2022-11-15T13:19:58;99534.69;;;13.87;92.07
54854;BME280;40747;49.480;8.658;2022-11-15T13:22:26;99535.41;;;14.21;90.12
54854;BME280;40747;49.480;8.658;2022-11-15T13:35:53;99498.63;;;15.19;83.53
54854;BME280;40747;49.480;8.658;2022-11-15T13:40:55;99502.97;;;15.20;83.40
54854;BME280;40747;49.480;8.658;2022-11-15T13:46:11;99496.91;;;15.18;83.19
54854;BME280;40747;49.480;8.658;2022-11-15T13:48:37;99492.78;;;15.42;82.33
54854;BME280;40747;49.480;8.658;2022-11-15T13:51:05;99484.13;;;15.52;80.19
54854;BME280;40747;49.480;8.658;2022-11-15T13:53:33;99473.44;;;15.54;80.17
54854;BME280;40747;49.480;8.658;2022-11-15T13:56:01;99473.03;;;15.60;79.64
54854;BME280;40747;49.480;8.658;2022-11-15T13:58:28;99466.22;;;15.56;78.78
54854;BME280;40747;49.480;8.658;2022-11-15T14:01:03;99464.91;;;15.49;79.15
54854;BME280;40747;49.480;8.658;2022-11-15T14:03:46;99452.25;;;15.67;78.95
54854;BME280;40747;49.480;8.658;2022-11-15T14:06:13;99451.94;;;15.71;80.70
54854;BME280;40747;49.480;8.658;2022-11-15T14:08:42;99454.75;;;15.83;79.77
54854;BME280;40747;49.480;8.658;2022-11-15T14:11:22;99449.16;;;15.87;79.20
54854;BME280;40747;49.480;8.658;2022-11-15T14:16:40;99439.84;;;15.80;80.55
54854;BME280;40747;49.480;8.658;2022-11-15T14:19:08;99442.34;;;15.69;82.38
54854;BME280;40747;49.480;8.658;2022-11-15T14:21:34;99435.56;;;15.65;82.97
54854;BME280;40747;49.480;8.658;2022-11-15T14:24:21;99434.22;;;15.72;82.74
54854;BME280;40747;49.480;8.658;2022-11-15T14:26:46;99424.94;;;15.65;80.34
54854;BME280;40747;49.480;8.658;2022-11-15T14:29:25;99429.69;;;15.60;82.80
54854;BME280;40747;49.480;8.658;2022-11-15T14:31:52;99431.66;;;15.43;82.70
54854;BME280;40747;49.480;8.658;2022-11-15T14:34:18;99416.06;;;15.24;80.38
54854;BME280;40747;49.480;8.658;2022-11-15T14:36:43;99407.88;;;15.14;79.04
54854;BME280;40747;49.480;8.658;2022-11-15T14:39:08;99405.63;;;15.08;79.67
54854;BME280;40747;49.480;8.658;2022-11-15T14:41:35;99399.66;;;15.04;79.95
54854;BME280;40747;49.480;8.658;2022-11-15T14:44:05;99391.41;;;15.09;79.46